Terminal Aerodrome Forecast
Issued by NWS Cleveland, OH

Home | Current Version | Previous Version | Graphics & Text | Print | Product List | Glossary On
Versions: 1 2 3 4 5 6 7 8 9 10 11 12 13 14 15 16 17 18 19 20 21
962
FTUS41 KCLE 300520
TAFCAK
TAF
KCAK 300520Z 3006/0106 17008KT P6SM SCT035 OVC120
     FM301000 15008KT 6SM -SHRA BR OVC025
      TEMPO 3010/3014 4SM -RA BR OVC015
     FM301600 18009KT P6SM VCSH OVC020
     FM302200 24012KT 6SM -SHRA BKN020
      TEMPO 3022/3024 5SM -RA OVC015
     FM010000 26012KT P6SM BKN025=

USA.gov is the U.S. government's official web portal to all federal, state and local government web resources and services.